Time;durP1;ratioP1;P1;durP2;ratioP2;P2;SDS_P1;SDS_P2;PMS_P1;PMS_P2;Temp;Humidity;BMP_temperature;BMP_pressure;BME280_temperature;BME280_humidity;BME280_pressure;Samples;Min_cycle;Max_cycle;Signal;HPM_P1;HPM_P2
2022/07/09 00:00:13;;;;;;;0.82;0.80;;;16.80;99.90;;;;;;5034653;28;20578;-61
2022/07/09 00:02:40;;;;;;;0.80;0.80;;;16.80;99.90;;;;;;5038317;28;20601;-61
2022/07/09 00:05:08;;;;;;;0.85;0.85;;;16.80;99.90;;;;;;5032985;28;20225;-61
2022/07/09 00:07:35;;;;;;;1.00;1.00;;;16.80;99.90;;;;;;5030524;28;20224;-61
2022/07/09 00:10:02;;;;;;;1.08;0.98;;;16.70;99.90;;;;;;5031764;28;20228;-62
2022/07/09 00:12:29;;;;;;;0.80;0.80;;;16.70;99.90;;;;;;5031346;28;20212;-61
2022/07/09 00:14:57;;;;;;;1.13;0.80;;;16.70;99.90;;;;;;5032167;28;20235;-61
2022/07/09 00:17:25;;;;;;;0.90;0.90;;;16.50;99.90;;;;;;5023925;28;20224;-61
2022/07/09 00:19:52;;;;;;;0.95;0.95;;;16.50;99.90;;;;;;5027473;28;20627;-61
2022/07/09 00:22:19;;;;;;;0.90;0.90;;;16.40;99.90;;;;;;5044106;22;20789;-63
2022/07/09 00:24:46;;;;;;;0.90;0.90;;;16.30;99.90;;;;;;5008212;28;20292;-64
2022/07/09 00:27:13;;;;;;;0.73;0.70;;;16.20;99.90;;;;;;5010217;28;20256;-63
2022/07/09 00:29:40;;;;;;;0.70;0.70;;;16.10;99.90;;;;;;5010508;28;20223;-64
2022/07/09 00:32:08;;;;;;;0.82;0.82;;;16.10;99.90;;;;;;5011004;28;20232;-64
2022/07/09 00:34:35;;;;;;;0.80;0.80;;;16.10;99.90;;;;;;5004100;28;20212;-64
2022/07/09 00:37:02;;;;;;;0.82;0.82;;;16.10;99.90;;;;;;5011001;28;20304;-64
2022/07/09 00:39:29;;;;;;;0.70;0.70;;;16.10;99.90;;;;;;5009479;28;20304;-64
2022/07/09 00:42:04;;;;;;;1.00;1.00;;;16.20;99.90;;;;;;5009940;28;20594;-64
2022/07/09 00:44:31;;;;;;;1.00;1.00;;;16.30;99.90;;;;;;5010261;28;20235;-63
2022/07/09 00:46:57;;;;;;;0.98;0.93;;;16.20;99.90;;;;;;5010063;28;20193;-64
2022/07/09 00:49:28;;;;;;;0.70;0.70;;;16.10;99.90;;;;;;5009554;28;20205;-64
2022/07/09 00:51:55;;;;;;;0.70;0.70;;;16.20;99.90;;;;;;5008311;28;20316;-64
2022/07/09 00:54:22;;;;;;;0.93;0.88;;;16.10;99.90;;;;;;5007955;28;20569;-62
2022/07/09 00:56:49;;;;;;;0.63;0.63;;;16.10;99.90;;;;;;5008810;28;20288;-63
2022/07/09 00:59:18;;;;;;;0.80;0.80;;;16.10;99.90;;;;;;5009304;28;20205;-66
2022/07/09 01:01:45;;;;;;;0.90;0.90;;;16.10;99.90;;;;;;5010287;28;20233;-63
2022/07/09 01:04:12;;;;;;;0.90;0.90;;;16.10;99.90;;;;;;5009675;28;20210;-64
2022/07/09 01:06:40;;;;;;;0.88;0.88;;;16.10;99.90;;;;;;5009861;28;20678;-63
2022/07/09 01:09:07;;;;;;;0.97;0.97;;;16.10;99.90;;;;;;5012605;28;20207;-63
2022/07/09 01:11:34;;;;;;;0.90;0.90;;;16.10;99.90;;;;;;5008715;28;20571;-64
2022/07/09 01:14:01;;;;;;;0.77;0.77;;;16.10;99.90;;;;;;5003942;28;20651;-64
2022/07/09 01:16:32;;;;;;;0.90;0.90;;;16.10;99.90;;;;;;5016286;28;20293;-66
2022/07/09 01:18:59;;;;;;;0.70;0.70;;;16.00;99.90;;;;;;5013445;28;20229;-65
2022/07/09 01:21:28;;;;;;;0.87;0.87;;;16.00;99.90;;;;;;5011846;28;20204;-64
2022/07/09 01:23:56;;;;;;;0.80;0.80;;;15.90;99.90;;;;;;5015058;28;20217;-64
2022/07/09 01:26:24;;;;;;;0.95;0.95;;;15.90;99.90;;;;;;5017008;28;20244;-63
2022/07/09 01:28:51;;;;;;;0.95;0.80;;;15.80;99.90;;;;;;5012243;28;20400;-64
2022/07/09 01:31:18;;;;;;;0.82;0.82;;;15.90;99.90;;;;;;5012914;28;20209;-65
2022/07/09 01:33:45;;;;;;;0.80;0.80;;;15.80;99.90;;;;;;5016677;28;20216;-64
2022/07/09 01:36:12;;;;;;;0.82;0.82;;;15.80;99.90;;;;;;5016235;28;20205;-66
2022/07/09 01:38:40;;;;;;;0.90;0.90;;;15.70;99.90;;;;;;5015324;28;20231;-64
2022/07/09 01:41:07;;;;;;;0.70;0.70;;;15.70;99.90;;;;;;5010771;28;20296;-66
2022/07/09 01:43:34;;;;;;;0.75;0.75;;;15.70;99.90;;;;;;5015010;28;20225;-65
2022/07/09 01:46:01;;;;;;;0.80;0.80;;;15.70;99.90;;;;;;5014929;28;20233;-64
2022/07/09 01:48:28;;;;;;;0.73;0.73;;;15.60;99.90;;;;;;5014480;28;20204;-65
2022/07/09 01:50:55;;;;;;;0.73;0.73;;;15.70;99.90;;;;;;5014795;28;20202;-64
2022/07/09 01:53:22;;;;;;;0.75;0.68;;;15.50;99.90;;;;;;5014830;28;20251;-65
2022/07/09 01:55:50;;;;;;;2.00;1.00;;;15.40;99.90;;;;;;5014906;28;20296;-64
2022/07/09 01:58:18;;;;;;;1.10;0.90;;;15.40;99.90;;;;;;5014283;28;20361;-66
2022/07/09 02:00:45;;;;;;;0.90;0.90;;;15.30;99.90;;;;;;5014884;28;20305;-64
2022/07/09 02:03:12;;;;;;;0.90;0.90;;;15.20;99.90;;;;;;5022314;28;20990;-66
2022/07/09 02:05:39;;;;;;;0.80;0.80;;;15.20;99.90;;;;;;5014667;28;20205;-63
2022/07/09 02:08:06;;;;;;;0.80;0.80;;;15.30;99.90;;;;;;5014799;28;20225;-64
2022/07/09 02:10:33;;;;;;;0.70;0.70;;;15.20;99.90;;;;;;5013976;28;20205;-64
2022/07/09 02:13:01;;;;;;;0.90;0.90;;;15.20;99.90;;;;;;5014128;28;20229;-63
2022/07/09 02:15:28;;;;;;;0.65;0.65;;;15.00;99.90;;;;;;5014520;28;20236;-63
2022/07/09 02:17:55;;;;;;;0.90;0.90;;;15.00;99.90;;;;;;5014284;28;20761;-64
2022/07/09 02:20:22;;;;;;;1.08;1.00;;;15.00;99.90;;;;;;5014083;28;20243;-64
2022/07/09 02:22:49;;;;;;;0.82;0.80;;;15.00;99.90;;;;;;5014273;28;20275;-65
2022/07/09 02:25:16;;;;;;;0.80;0.80;;;14.90;99.90;;;;;;5014096;28;20667;-65
2022/07/09 02:27:43;;;;;;;1.00;1.00;;;14.90;99.90;;;;;;5015177;28;20206;-65
2022/07/09 02:30:12;;;;;;;0.60;0.60;;;14.90;99.90;;;;;;5013509;28;20201;-63
2022/07/09 02:32:39;;;;;;;0.77;0.77;;;14.90;99.90;;;;;;5013531;28;20617;-62
2022/07/09 02:35:07;;;;;;;0.93;0.93;;;14.80;99.90;;;;;;5013576;28;20315;-60
2022/07/09 02:37:35;;;;;;;1.00;0.90;;;14.80;99.90;;;;;;5013654;28;20312;-63
2022/07/09 02:40:01;;;;;;;0.98;0.98;;;14.80;99.90;;;;;;5013728;28;20201;-65
2022/07/09 02:42:28;;;;;;;0.88;0.88;;;14.80;99.90;;;;;;5014193;28;20312;-64
2022/07/09 02:44:55;;;;;;;0.80;0.80;;;14.60;99.90;;;;;;5013856;28;20211;-65
2022/07/09 02:47:23;;;;;;;0.80;0.80;;;14.60;99.90;;;;;;5014068;28;20256;-63
2022/07/09 02:49:50;;;;;;;0.80;0.80;;;14.70;99.90;;;;;;5013385;28;20216;-64
2022/07/09 02:52:17;;;;;;;0.90;0.90;;;14.70;99.90;;;;;;5013939;28;20311;-64
2022/07/09 02:54:44;;;;;;;0.88;0.88;;;14.70;99.90;;;;;;5014588;28;20582;-66
2022/07/09 02:57:12;;;;;;;0.80;0.80;;;14.70;99.90;;;;;;5013895;28;20197;-63
2022/07/09 02:59:38;;;;;;;0.70;0.70;;;14.70;99.90;;;;;;5013165;28;20359;-64
2022/07/09 03:02:06;;;;;;;0.70;0.70;;;14.80;99.90;;;;;;5013221;28;20663;-63
2022/07/09 03:04:34;;;;;;;0.90;0.90;;;14.80;99.90;;;;;;5013642;28;20288;-65
2022/07/09 03:07:01;;;;;;;0.70;0.70;;;14.80;99.90;;;;;;5010467;28;20204;-65
2022/07/09 03:09:28;;;;;;;0.80;0.80;;;14.80;99.90;;;;;;5008734;28;20639;-64
2022/07/09 03:11:55;;;;;;;0.70;0.70;;;14.80;99.90;;;;;;5010133;28;20252;-64
2022/07/09 03:14:22;;;;;;;0.80;0.80;;;14.70;99.90;;;;;;5012405;28;20201;-64
2022/07/09 03:16:49;;;;;;;0.60;0.60;;;14.70;99.90;;;;;;5013040;28;20299;-63
2022/07/09 03:19:16;;;;;;;0.93;0.93;;;14.70;99.90;;;;;;5012078;28;20253;-63
2022/07/09 03:21:44;;;;;;;0.90;0.90;;;14.80;99.90;;;;;;5013231;28;20213;-65
2022/07/09 03:24:12;;;;;;;1.75;0.80;;;14.80;99.90;;;;;;5013045;28;20229;-65
2022/07/09 03:26:39;;;;;;;0.88;0.88;;;14.70;99.90;;;;;;5012928;28;20263;-63
2022/07/09 03:29:07;;;;;;;0.80;0.80;;;14.80;99.90;;;;;;5011381;28;20208;-63
2022/07/09 03:31:34;;;;;;;0.82;0.82;;;14.60;99.90;;;;;;5012716;28;20635;-65
2022/07/09 03:34:01;;;;;;;0.80;0.80;;;14.60;99.90;;;;;;5013146;28;20296;-65
2022/07/09 03:36:28;;;;;;;0.90;0.80;;;14.70;99.90;;;;;;5014034;28;20221;-64
2022/07/09 03:38:56;;;;;;;0.70;0.70;;;14.60;99.90;;;;;;5012537;28;20289;-64
2022/07/09 03:41:23;;;;;;;0.70;0.70;;;14.60;99.90;;;;;;5013083;28;20213;-63
2022/07/09 03:43:50;;;;;;;0.82;0.82;;;14.50;99.90;;;;;;5012516;28;20251;-66
2022/07/09 03:46:16;;;;;;;1.55;1.20;;;14.50;99.90;;;;;;5011113;28;20211;-62
2022/07/09 03:48:44;;;;;;;1.02;1.00;;;14.50;99.90;;;;;;5011449;28;20205;-66
2022/07/09 03:51:11;;;;;;;0.68;0.68;;;14.50;99.90;;;;;;5012212;28;20208;-63
2022/07/09 03:53:38;;;;;;;0.80;0.80;;;14.40;99.90;;;;;;5012204;28;20229;-65
2022/07/09 03:56:07;;;;;;;1.20;0.80;;;14.50;99.90;;;;;;5011976;28;20205;-67
2022/07/09 03:58:35;;;;;;;0.90;0.90;;;14.50;99.90;;;;;;5011326;28;20267;-64
2022/07/09 04:01:02;;;;;;;0.90;0.90;;;14.40;99.90;;;;;;5012125;28;20585;-63
2022/07/09 04:03:29;;;;;;;0.90;0.90;;;14.40;99.90;;;;;;5012711;28;20233;-65
2022/07/09 04:05:56;;;;;;;0.68;0.68;;;14.40;99.90;;;;;;5012370;28;20212;-64
2022/07/09 04:08:23;;;;;;;0.70;0.70;;;14.40;99.90;;;;;;5020998;28;20189;-62
2022/07/09 04:10:50;;;;;;;0.80;0.80;;;14.40;99.90;;;;;;5034262;28;20206;-63
2022/07/09 04:13:19;;;;;;;1.00;1.00;;;14.40;99.90;;;;;;5026190;28;20256;-65
2022/07/09 04:15:46;;;;;;;0.93;0.93;;;14.50;99.90;;;;;;5015098;28;20205;-63
2022/07/09 04:18:14;;;;;;;0.70;0.70;;;14.50;99.90;;;;;;5010971;28;20225;-64
2022/07/09 04:20:41;;;;;;;1.00;1.00;;;14.50;99.90;;;;;;5018549;28;20201;-65
2022/07/09 04:23:08;;;;;;;0.80;0.80;;;14.60;99.90;;;;;;5017921;28;20323;-63
2022/07/09 04:25:35;;;;;;;0.80;0.80;;;14.60;99.90;;;;;;5011418;28;20205;-64
2022/07/09 04:28:01;;;;;;;0.67;0.67;;;14.60;99.90;;;;;;5011491;28;20324;-65
2022/07/09 04:30:30;;;;;;;0.70;0.70;;;14.60;99.90;;;;;;5010709;28;20205;-63
2022/07/09 04:32:57;;;;;;;1.08;1.08;;;14.70;99.90;;;;;;5011229;28;20589;-64
2022/07/09 04:35:24;;;;;;;1.00;1.00;;;14.70;99.90;;;;;;5010943;28;20209;-63
2022/07/09 04:37:50;;;;;;;1.00;1.00;;;14.70;99.90;;;;;;5011185;28;20288;-65
2022/07/09 04:40:17;;;;;;;1.10;1.03;;;14.70;99.90;;;;;;5010692;28;20205;-63
2022/07/09 04:42:44;;;;;;;1.35;0.95;;;14.70;99.90;;;;;;5011281;28;20589;-63
2022/07/09 04:45:12;;;;;;;0.82;0.82;;;14.70;99.90;;;;;;5011065;28;20211;-63
2022/07/09 04:47:40;;;;;;;0.80;0.80;;;14.70;99.90;;;;;;5011232;28;20294;-64
2022/07/09 04:50:08;;;;;;;0.80;0.80;;;14.80;99.90;;;;;;5010512;28;20193;-65
2022/07/09 04:52:35;;;;;;;0.90;0.90;;;14.80;99.90;;;;;;5011296;28;20737;-64
2022/07/09 04:55:01;;;;;;;0.85;0.85;;;14.80;99.90;;;;;;5014747;28;20205;-64
2022/07/09 04:57:28;;;;;;;0.80;0.80;;;14.80;99.90;;;;;;5014286;28;20201;-63
2022/07/09 04:59:59;;;;;;;0.90;0.90;;;14.80;99.90;;;;;;5012993;28;20295;-65
2022/07/09 05:02:26;;;;;;;1.07;0.90;;;14.90;99.90;;;;;;5022412;28;20225;-65
2022/07/09 05:04:54;;;;;;;1.00;1.00;;;15.00;99.90;;;;;;5019962;28;20235;-64
2022/07/09 05:07:21;;;;;;;0.90;0.77;;;15.10;99.90;;;;;;5009038;28;20297;-65
2022/07/09 05:09:48;;;;;;;0.90;0.90;;;15.10;99.90;;;;;;5010591;28;20201;-65
2022/07/09 05:12:14;;;;;;;0.93;0.93;;;15.30;99.90;;;;;;5011404;28;20263;-64
2022/07/09 05:14:41;;;;;;;0.90;0.90;;;15.40;99.90;;;;;;5011110;28;20228;-64
2022/07/09 05:17:08;;;;;;;0.77;0.77;;;15.50;99.90;;;;;;5011081;28;20836;-64
2022/07/09 05:19:35;;;;;;;0.70;0.70;;;15.60;99.90;;;;;;5010036;28;20229;-64
2022/07/09 05:22:04;;;;;;;2.42;0.88;;;15.70;99.90;;;;;;5010685;28;20243;-64
2022/07/09 05:24:31;;;;;;;0.90;0.90;;;15.90;99.90;;;;;;5011574;28;20273;-63
2022/07/09 05:26:58;;;;;;;0.73;0.73;;;16.20;99.90;;;;;;5011530;28;20201;-64
2022/07/09 05:29:26;;;;;;;0.70;0.70;;;16.40;99.90;;;;;;5010530;28;20205;-65
2022/07/09 05:31:53;;;;;;;1.15;1.10;;;16.60;99.90;;;;;;5011023;28;20279;-66
2022/07/09 05:34:20;;;;;;;0.70;0.70;;;16.70;99.90;;;;;;5011770;28;20209;-64
2022/07/09 05:36:47;;;;;;;0.80;0.80;;;16.90;99.90;;;;;;5012033;28;20205;-64
2022/07/09 05:39:15;;;;;;;0.70;0.70;;;17.00;99.90;;;;;;5010823;28;20641;-64
2022/07/09 05:41:42;;;;;;;1.00;0.80;;;17.30;99.90;;;;;;5012215;28;20205;-65
2022/07/09 05:44:09;;;;;;;1.02;1.00;;;17.40;99.90;;;;;;5011967;28;20215;-64
2022/07/09 05:46:36;;;;;;;0.87;0.87;;;17.60;99.90;;;;;;5008934;28;20206;-65
2022/07/09 05:49:03;;;;;;;0.90;0.90;;;17.80;99.90;;;;;;5011097;28;20301;-63
2022/07/09 05:51:30;;;;;;;0.95;0.95;;;18.00;99.90;;;;;;5011657;28;20228;-65
2022/07/09 05:53:57;;;;;;;0.85;0.85;;;18.10;99.90;;;;;;5011734;28;20300;-65
2022/07/09 05:56:25;;;;;;;0.85;0.85;;;18.30;99.90;;;;;;5011484;28;20610;-64
2022/07/09 05:58:52;;;;;;;1.17;1.08;;;18.50;99.90;;;;;;5005143;28;20267;-65
2022/07/09 06:01:19;;;;;;;0.90;0.90;;;18.70;99.90;;;;;;5011598;28;20296;-64
2022/07/09 06:03:47;;;;;;;0.90;0.90;;;18.80;99.90;;;;;;5011143;28;20225;-64
2022/07/09 06:06:13;;;;;;;0.98;0.80;;;18.90;99.90;;;;;;5011216;28;20707;-64
2022/07/09 06:08:40;;;;;;;0.80;0.80;;;19.00;99.90;;;;;;5010063;28;20202;-64
2022/07/09 06:11:07;;;;;;;0.90;0.90;;;19.30;99.90;;;;;;5014225;28;20263;-65
2022/07/09 06:13:35;;;;;;;0.80;0.77;;;19.40;99.90;;;;;;5014755;28;20260;-66
2022/07/09 06:16:02;;;;;;;0.60;0.60;;;19.50;99.90;;;;;;5015185;28;20220;-65
2022/07/09 06:18:29;;;;;;;0.98;0.98;;;19.70;99.90;;;;;;5013662;28;20209;-64
2022/07/09 06:20:57;;;;;;;0.77;0.77;;;19.80;99.90;;;;;;5009485;28;20213;-65
2022/07/09 06:23:24;;;;;;;0.70;0.70;;;20.00;99.90;;;;;;5014611;28;20723;-67
2022/07/09 06:25:51;;;;;;;0.90;0.90;;;20.20;99.90;;;;;;5014641;28;20232;-64
2022/07/09 06:28:17;;;;;;;1.55;1.00;;;20.30;99.90;;;;;;5013557;28;20645;-65
2022/07/09 06:30:46;;;;;;;0.95;0.80;;;20.50;99.90;;;;;;5014484;28;20328;-64
2022/07/09 06:33:13;;;;;;;1.10;1.10;;;20.60;99.90;;;;;;5014442;28;20406;-64
2022/07/09 06:35:40;;;;;;;1.80;0.90;;;20.70;99.90;;;;;;5013709;28;20675;-65
2022/07/09 06:38:07;;;;;;;0.77;0.77;;;20.80;99.90;;;;;;5019936;28;20696;-64
2022/07/09 06:40:34;;;;;;;0.82;0.82;;;20.80;99.90;;;;;;5014407;28;20312;-64
2022/07/09 06:43:01;;;;;;;0.80;0.80;;;20.80;99.90;;;;;;5014336;28;20744;-63
2022/07/09 06:45:28;;;;;;;1.07;0.97;;;20.80;99.90;;;;;;5013906;28;20294;-64
2022/07/09 06:47:56;;;;;;;0.98;0.98;;;20.80;99.90;;;;;;5013698;28;20208;-64
2022/07/09 06:50:23;;;;;;;1.00;0.90;;;21.00;99.90;;;;;;5013932;28;20194;-63
2022/07/09 06:52:50;;;;;;;1.02;0.98;;;21.00;99.90;;;;;;5013448;28;20300;-65
2022/07/09 06:55:17;;;;;;;2.03;1.05;;;20.80;99.90;;;;;;5011482;28;20209;-65
2022/07/09 06:57:44;;;;;;;1.00;1.00;;;20.70;99.90;;;;;;5013585;28;20563;-65
2022/07/09 07:00:11;;;;;;;0.80;0.80;;;20.70;99.90;;;;;;5008597;28;20224;-62
2022/07/09 07:02:38;;;;;;;0.90;0.90;;;20.90;99.90;;;;;;5013235;28;20226;-64
2022/07/09 07:05:07;;;;;;;0.80;0.80;;;21.10;99.90;;;;;;5014386;28;20255;-65
2022/07/09 07:07:34;;;;;;;0.80;0.80;;;21.30;99.90;;;;;;5014217;28;20603;-65
2022/07/09 07:10:01;;;;;;;0.80;0.80;;;21.40;99.90;;;;;;5012363;28;20209;-64
2022/07/09 07:12:28;;;;;;;0.88;0.88;;;21.50;99.90;;;;;;5014511;28;20221;-65
2022/07/09 07:14:55;;;;;;;0.77;0.77;;;21.50;99.90;;;;;;5021553;28;20596;-64
2022/07/09 07:17:22;;;;;;;0.80;0.80;;;21.60;99.90;;;;;;5023949;28;20205;-64
2022/07/09 07:19:49;;;;;;;1.08;1.08;;;21.60;99.90;;;;;;5017659;28;20706;-64
2022/07/09 07:22:17;;;;;;;1.00;1.00;;;21.70;99.90;;;;;;5021587;28;20283;-64
2022/07/09 07:24:44;;;;;;;0.95;0.95;;;21.90;99.90;;;;;;5017280;28;20300;-66
2022/07/09 07:27:11;;;;;;;1.30;1.20;;;22.00;99.90;;;;;;5019394;28;20289;-62
2022/07/09 07:29:38;;;;;;;1.08;1.08;;;22.10;99.90;;;;;;5012446;28;20280;-64
2022/07/09 07:32:05;;;;;;;0.70;0.70;;;22.00;99.90;;;;;;5003605;28;20257;-65
2022/07/09 07:34:32;;;;;;;0.93;0.93;;;22.00;99.90;;;;;;5020986;28;20634;-65
2022/07/09 07:36:59;;;;;;;0.90;0.90;;;22.10;99.90;;;;;;5001104;28;20708;-65
2022/07/09 07:39:27;;;;;;;1.17;1.08;;;22.20;99.90;;;;;;5007128;28;20308;-65
2022/07/09 07:41:54;;;;;;;1.05;1.00;;;22.30;99.90;;;;;;5003261;28;20230;-65
2022/07/09 07:44:22;;;;;;;1.63;0.90;;;22.40;99.90;;;;;;5016452;28;20219;-64
2022/07/09 07:46:49;;;;;;;1.02;1.02;;;22.50;99.90;;;;;;5016536;28;20205;-64
2022/07/09 07:49:17;;;;;;;1.65;1.13;;;22.60;99.90;;;;;;5012478;28;20284;-65
2022/07/09 07:51:45;;;;;;;2.53;1.30;;;22.70;99.90;;;;;;5012399;28;20237;-65
2022/07/09 07:54:11;;;;;;;1.30;1.20;;;22.70;99.90;;;;;;5013462;28;20701;-64
2022/07/09 07:56:41;;;;;;;1.38;1.17;;;22.60;99.90;;;;;;5015517;28;20682;-64
2022/07/09 07:59:08;;;;;;;1.20;1.05;;;22.80;99.90;;;;;;5017944;28;20205;-64
2022/07/09 08:01:34;;;;;;;0.95;0.95;;;22.90;99.90;;;;;;5005376;28;20296;-66
2022/07/09 08:04:01;;;;;;;1.75;0.95;;;22.90;99.90;;;;;;5017832;28;20205;-64
2022/07/09 08:06:28;;;;;;;1.00;1.00;;;22.90;99.90;;;;;;5013622;28;20619;-64
2022/07/09 08:08:55;;;;;;;0.77;0.77;;;23.00;99.90;;;;;;5015813;28;20247;-63
2022/07/09 08:11:22;;;;;;;0.90;0.90;;;23.00;99.90;;;;;;5014382;28;20232;-65
2022/07/09 08:13:51;;;;;;;1.25;1.15;;;23.20;99.90;;;;;;5011963;28;20221;-66
2022/07/09 08:16:18;;;;;;;1.10;1.10;;;23.20;99.90;;;;;;5009424;28;20229;-64
2022/07/09 08:18:45;;;;;;;1.67;1.05;;;23.40;99.90;;;;;;5004404;28;20214;-65
2022/07/09 08:21:12;;;;;;;1.60;1.10;;;23.60;99.90;;;;;;5005072;28;20222;-64
2022/07/09 08:23:53;;;;;;;1.20;1.20;;;23.30;99.90;;;;;;5008104;28;20232;-64
2022/07/09 08:26:21;;;;;;;1.92;1.20;;;23.40;99.90;;;;;;5008373;28;20198;-63
2022/07/09 08:28:49;;;;;;;1.38;1.27;;;23.40;99.90;;;;;;5011194;28;20209;-63
2022/07/09 08:31:16;;;;;;;1.20;1.10;;;23.40;99.90;;;;;;5012144;28;20193;-62
2022/07/09 08:33:43;;;;;;;0.90;0.90;;;23.50;99.90;;;;;;5011665;28;20249;-64
2022/07/09 08:36:11;;;;;;;1.25;1.20;;;23.50;99.90;;;;;;5011477;28;20244;-64
2022/07/09 08:38:38;;;;;;;1.00;1.00;;;23.70;99.90;;;;;;5009573;28;20613;-64
2022/07/09 08:41:06;;;;;;;0.80;0.80;;;24.00;99.90;;;;;;5011448;28;20231;-64
2022/07/09 08:43:34;;;;;;;1.10;1.00;;;23.90;99.90;;;;;;5011168;28;20240;-64
2022/07/09 08:46:02;;;;;;;1.00;1.00;;;24.00;99.90;;;;;;5012045;28;20678;-64
2022/07/09 08:48:33;;;;;;;1.20;1.10;;;24.10;99.90;;;;;;5011124;28;20202;-64
2022/07/09 08:51:00;;;;;;;0.75;0.75;;;24.20;99.90;;;;;;5011935;28;20551;-64
2022/07/09 08:53:29;;;;;;;0.90;0.90;;;24.30;99.90;;;;;;5011240;28;20308;-64
2022/07/09 08:55:56;;;;;;;1.00;1.00;;;24.50;99.90;;;;;;5009047;28;20686;-65
2022/07/09 08:58:23;;;;;;;1.10;1.10;;;24.60;99.90;;;;;;5011186;28;20296;-64
2022/07/09 09:00:50;;;;;;;1.20;0.90;;;24.60;99.90;;;;;;5017404;28;20225;-65
2022/07/09 09:03:19;;;;;;;1.10;1.00;;;24.60;99.90;;;;;;5022745;28;20630;-63
2022/07/09 09:05:46;;;;;;;0.98;0.98;;;24.70;99.90;;;;;;5015663;28;20304;-64
2022/07/09 09:08:21;;;;;;;0.90;0.90;;;24.80;99.90;;;;;;5014515;28;20575;-63
2022/07/09 09:10:48;;;;;;;0.90;0.90;;;24.80;99.90;;;;;;5011732;28;20355;-65
2022/07/09 09:13:18;;;;;;;1.00;1.00;;;24.90;99.90;;;;;;5022426;28;20239;-64
2022/07/09 09:15:44;;;;;;;0.80;0.80;;;24.80;99.90;;;;;;5012315;28;20617;-65
2022/07/09 09:18:12;;;;;;;1.10;1.00;;;24.70;99.90;;;;;;5022055;28;20207;-63
2022/07/09 09:20:46;;;;;;;1.05;0.90;;;24.80;99.90;;;;;;5009750;28;20699;-64
2022/07/09 09:23:17;;;;;;;1.00;1.00;;;25.10;99.90;;;;;;5019465;28;20236;-64
2022/07/09 09:25:43;;;;;;;0.85;0.85;;;25.30;99.90;;;;;;5011578;28;20312;-65
2022/07/09 09:28:12;;;;;;;1.00;1.00;;;25.30;99.90;;;;;;5011519;28;20205;-66
2022/07/09 09:30:43;;;;;;;1.00;0.98;;;25.20;99.90;;;;;;5010034;28;20617;-66
2022/07/09 09:33:09;;;;;;;0.90;0.90;;;25.20;99.90;;;;;;5009461;28;20851;-63
2022/07/09 09:35:42;;;;;;;1.38;1.00;;;25.20;99.90;;;;;;5001857;28;20664;-64
2022/07/09 09:38:11;;;;;;;1.02;0.95;;;25.40;99.90;;;;;;4999867;28;20225;-64
2022/07/09 09:40:39;;;;;;;1.45;0.80;;;25.70;99.90;;;;;;5004347;28;20306;-64
2022/07/09 09:43:05;;;;;;;1.20;1.10;;;25.80;99.90;;;;;;4997479;28;20226;-64
2022/07/09 09:45:34;;;;;;;0.70;0.70;;;26.10;99.90;;;;;;5013237;28;20321;-65
2022/07/09 09:48:03;;;;;;;0.90;0.90;;;26.10;99.90;;;;;;5009674;28;20216;-65
2022/07/09 09:50:29;;;;;;;0.80;0.75;;;26.20;99.90;;;;;;5012843;28;20262;-67
2022/07/09 09:52:56;;;;;;;0.90;0.90;;;26.20;99.90;;;;;;5001054;28;20308;-63
2022/07/09 09:55:25;;;;;;;1.13;1.02;;;26.10;99.90;;;;;;5003790;28;20296;-65
2022/07/09 09:57:53;;;;;;;0.90;0.90;;;26.00;99.90;;;;;;5004467;28;20210;-66
2022/07/09 10:00:20;;;;;;;0.90;0.90;;;26.10;99.90;;;;;;5004523;28;20283;-65
2022/07/09 10:02:50;;;;;;;2.13;1.85;;;26.00;99.90;;;;;;5003796;28;20693;-63
2022/07/09 10:05:17;;;;;;;2.25;2.15;;;26.00;99.90;;;;;;5004456;28;20281;-64
2022/07/09 10:07:44;;;;;;;1.27;1.05;;;26.00;99.90;;;;;;5004227;28;20229;-65
2022/07/09 10:10:18;;;;;;;1.20;1.10;;;26.10;99.90;;;;;;5003180;28;20210;-65
2022/07/09 10:12:47;;;;;;;2.15;2.05;;;26.20;99.90;;;;;;5005043;28;20343;-65
2022/07/09 10:15:26;;;;;;;1.33;1.23;;;26.10;99.90;;;;;;5000799;28;20559;-64
2022/07/09 10:17:53;;;;;;;1.02;1.02;;;26.30;99.90;;;;;;5002022;28;20253;-66
2022/07/09 10:20:31;;;;;;;0.80;0.75;;;26.30;99.90;;;;;;5003111;28;20258;-64
2022/07/09 10:22:58;;;;;;;0.80;0.80;;;26.40;99.90;;;;;;5005093;28;20325;-65
2022/07/09 10:25:31;;;;;;;0.65;0.65;;;26.50;99.90;;;;;;5003984;28;20288;-63
2022/07/09 10:27:59;;;;;;;0.80;0.80;;;26.80;99.90;;;;;;5001397;28;20208;-65
2022/07/09 10:30:27;;;;;;;0.90;0.90;;;27.00;99.90;;;;;;5003827;28;20933;-63
2022/07/09 10:33:05;;;;;;;0.93;0.80;;;26.90;99.90;;;;;;5001883;28;20236;-65
2022/07/09 10:35:39;;;;;;;0.70;0.70;;;26.80;99.90;;;;;;5006389;28;20288;-65
2022/07/09 10:38:06;;;;;;;0.88;0.88;;;26.90;99.90;;;;;;5001257;28;20210;-65
2022/07/09 10:40:40;;;;;;;0.90;0.90;;;27.10;99.90;;;;;;5005259;28;20229;-67
2022/07/09 10:43:08;;;;;;;0.90;0.90;;;27.00;99.90;;;;;;5006353;28;20230;-64
2022/07/09 10:45:39;;;;;;;0.82;0.82;;;27.10;99.90;;;;;;5006252;28;20296;-65
2022/07/09 10:48:09;;;;;;;0.90;0.90;;;26.80;99.90;;;;;;5005388;28;20210;-64
2022/07/09 10:50:38;;;;;;;0.80;0.80;;;27.00;99.90;;;;;;5027757;28;20202;-65
2022/07/09 10:53:05;;;;;;;1.33;1.00;;;27.10;99.90;;;;;;5020055;28;20617;-64
2022/07/09 10:55:33;;;;;;;0.80;0.80;;;27.30;99.90;;;;;;5021859;28;20268;-63
2022/07/09 10:58:02;;;;;;;0.90;0.90;;;27.50;99.90;;;;;;5022036;28;20292;-64
2022/07/09 11:00:32;;;;;;;0.70;0.70;;;27.50;99.90;;;;;;5017083;28;20217;-65
2022/07/09 11:03:02;;;;;;;0.88;0.88;;;27.50;99.90;;;;;;5019410;28;20221;-63
2022/07/09 11:05:31;;;;;;;1.08;0.95;;;27.50;99.90;;;;;;5015375;28;20226;-66
2022/07/09 11:08:03;;;;;;;0.57;0.57;;;27.50;99.90;;;;;;5013549;28;20205;-66
2022/07/09 11:10:32;;;;;;;0.90;0.90;;;27.60;99.90;;;;;;5004041;28;20198;-65
2022/07/09 11:13:00;;;;;;;0.70;0.70;;;27.70;99.90;;;;;;5013307;28;20221;-65
2022/07/09 11:15:33;;;;;;;0.68;0.68;;;27.70;99.90;;;;;;5013886;28;20212;-64
2022/07/09 11:18:01;;;;;;;0.73;0.73;;;27.90;99.90;;;;;;5013601;28;20205;-64
2022/07/09 11:20:29;;;;;;;0.80;0.80;;;27.90;99.90;;;;;;5012552;28;20683;-64
2022/07/09 11:22:57;;;;;;;0.80;0.80;;;27.70;99.90;;;;;;5015181;28;20256;-66
2022/07/09 11:25:27;;;;;;;0.80;0.80;;;27.80;99.90;;;;;;5017704;28;20284;-65
2022/07/09 11:27:55;;;;;;;0.68;0.63;;;27.90;99.90;;;;;;5020395;28;20571;-63
2022/07/09 11:30:22;;;;;;;1.00;1.00;;;27.90;99.90;;;;;;5012681;28;20201;-67
2022/07/09 11:32:50;;;;;;;0.52;0.52;;;27.70;99.90;;;;;;5019674;28;20224;-64
2022/07/09 11:35:28;;;;;;;0.70;0.70;;;27.80;99.90;;;;;;5015125;28;20212;-66
2022/07/09 11:37:55;;;;;;;0.80;0.80;;;27.90;99.90;;;;;;5024465;28;20196;-65
2022/07/09 11:40:22;;;;;;;1.38;0.95;;;27.70;99.90;;;;;;5016674;28;20225;-65
2022/07/09 11:42:50;;;;;;;1.58;1.00;;;27.90;99.90;;;;;;5014785;28;20251;-66
2022/07/09 11:45:21;;;;;;;0.70;0.70;;;28.10;99.90;;;;;;5014887;28;20209;-64
2022/07/09 11:47:50;;;;;;;0.77;0.70;;;28.20;99.90;;;;;;5019548;28;20296;-65
2022/07/09 11:50:19;;;;;;;0.75;0.68;;;28.40;99.90;;;;;;5015611;28;20240;-66
2022/07/09 11:52:48;;;;;;;0.90;0.90;;;28.50;99.90;;;;;;5007074;28;20266;-66
2022/07/09 11:55:17;;;;;;;0.50;0.50;;;28.30;99.90;;;;;;5004210;28;20269;-64
2022/07/09 11:57:53;;;;;;;2.28;0.82;;;28.20;99.90;;;;;;4997415;28;20198;-65
2022/07/09 12:00:25;;;;;;;0.68;0.68;;;28.40;99.90;;;;;;5007120;28;20201;-65
2022/07/09 12:02:53;;;;;;;0.60;0.60;;;28.70;99.90;;;;;;4998677;28;20222;-65
2022/07/09 12:05:30;;;;;;;0.55;0.55;;;28.80;99.90;;;;;;5000470;28;20229;-65
2022/07/09 12:07:57;;;;;;;0.52;0.52;;;28.90;99.90;;;;;;4999570;28;20554;-64
2022/07/09 12:10:29;;;;;;;1.48;0.80;;;28.90;99.90;;;;;;4999506;28;20201;-65
2022/07/09 12:12:57;;;;;;;0.60;0.60;;;28.60;99.90;;;;;;5000351;28;20305;-62
2022/07/09 12:15:24;;;;;;;0.60;0.60;;;28.50;99.90;;;;;;4999468;28;20208;-66
2022/07/09 12:17:57;;;;;;;1.27;0.80;;;28.40;99.90;;;;;;4997721;28;20212;-65
2022/07/09 12:20:25;;;;;;;3.72;0.90;;;28.20;99.90;;;;;;4997736;28;20290;-64
2022/07/09 12:22:52;;;;;;;0.70;0.70;;;28.20;99.90;;;;;;4994422;28;20252;-65
2022/07/09 12:25:20;;;;;;;0.80;0.80;;;28.00;99.90;;;;;;4996015;28;20237;-66
2022/07/09 12:27:47;;;;;;;0.43;0.43;;;28.20;99.90;;;;;;4998865;28;20288;-65
2022/07/09 12:30:14;;;;;;;0.60;0.60;;;28.40;99.90;;;;;;4998674;28;20241;-63
2022/07/09 12:32:42;;;;;;;0.70;0.70;;;28.70;99.90;;;;;;5000797;28;20230;-66
2022/07/09 12:35:11;;;;;;;0.70;0.70;;;28.80;99.90;;;;;;4997840;28;20202;-65
2022/07/09 12:37:38;;;;;;;0.80;0.80;;;28.30;99.90;;;;;;4998304;28;20229;-66
2022/07/09 12:40:07;;;;;;;0.60;0.60;;;28.00;99.90;;;;;;4996587;28;20212;-65
2022/07/09 12:42:34;;;;;;;0.55;0.55;;;28.00;99.90;;;;;;5001555;28;20221;-65
2022/07/09 12:45:01;;;;;;;0.73;0.73;;;27.90;99.90;;;;;;4997464;28;20223;-64
2022/07/09 12:47:28;;;;;;;0.60;0.60;;;28.20;99.90;;;;;;5011445;28;20714;-65
2022/07/09 12:49:55;;;;;;;0.60;0.60;;;28.30;99.90;;;;;;5009746;28;20208;-64